LUKK/KIV METAR and TAF weather

Enter ICAO airport designator
Station Type Date Time Source
LUKK METAR 2020/08/05 17:00 UTC NOAA

LUKK 051700Z 20004KT CAVOK 29/08 Q1015 R09/CLRD// NOSIG


Station Type Date Time Source
LUKK Decoded METAR 2020/08/05 17:00 UTC NOAA

Chisinau International Airport, Moldova (LUKK) 46-55-40N 028-55-51E
Aug 05, 2020 - 01:00 PM EDT / 2020.08.05 1700 UTC
Wind: from the SSW (200 degrees) at 5 MPH (4 KT):0
Visibility: greater than 7 mile(s):0
Temperature: 84 F (29 C)
Dew Point: 46 F (8 C)
Relative Humidity: 26%
Pressure (altimeter): 29.97 in. Hg (1015 hPa)
ob: LUKK 051700Z 20004KT CAVOK 29/08 Q1015 R09/CLRD// NOSIG
cycle: 17

Station Type Date Time Source
LUKK TAF 2020/08/05 12:21 UTC NOAA

TAF TAF LUKK 051120Z 0512/0612 10010KT CAVOK
BECMG 0516/0518 VRB04KT
BECMG 0606/0608 06010KT

Example: see airport list